Time;durP1;ratioP1;P1;durP2;ratioP2;P2;SDS_P1;SDS_P2;PMS_P1;PMS_P2;Temp;Humidity;BMP_temperature;BMP_pressure;BME280_temperature;BME280_humidity;BME280_pressure;Samples;Min_cycle;Max_cycle;Signal;HPM_P1;HPM_P2
2022/06/10 00:00:19;;;;;;;10.00;2.50;;;13.70;99.90;;;;;;4919827;29;20534;-80
2022/06/10 00:02:45;;;;;;;11.07;2.28;;;13.70;99.90;;;;;;4949463;28;20069;-80
2022/06/10 00:05:19;;;;;;;11.30;2.50;;;13.70;99.90;;;;;;4934020;29;20413;-80
2022/06/10 00:07:45;;;;;;;8.43;2.35;;;13.70;99.90;;;;;;4930666;29;20071;-80
2022/06/10 00:10:14;;;;;;;9.10;2.15;;;13.60;99.90;;;;;;4936321;28;20467;-80
2022/06/10 00:12:40;;;;;;;9.05;2.33;;;13.60;99.90;;;;;;4932013;28;20383;-80
2022/06/10 00:15:07;;;;;;;8.55;1.95;;;13.60;99.90;;;;;;4933478;29;20122;-80
2022/06/10 00:17:33;;;;;;;9.65;2.17;;;13.60;99.90;;;;;;4931460;29;20061;-80
2022/06/10 00:19:59;;;;;;;7.07;2.13;;;13.50;99.90;;;;;;4933855;29;20035;-80
2022/06/10 00:22:25;;;;;;;6.60;1.90;;;13.50;99.90;;;;;;4933490;29;20082;-80
2022/06/10 00:24:51;;;;;;;10.30;2.33;;;13.50;99.90;;;;;;4918793;29;20471;-80
2022/06/10 00:27:20;;;;;;;10.75;2.40;;;13.50;99.90;;;;;;4933212;28;20051;-80
2022/06/10 00:29:47;;;;;;;9.93;2.00;;;13.50;99.90;;;;;;4951516;28;20061;-80
2022/06/10 00:32:14;;;;;;;9.40;2.25;;;13.50;99.90;;;;;;4936307;28;20049;-80
2022/06/10 00:34:40;;;;;;;9.05;2.20;;;13.50;99.90;;;;;;4972234;28;20108;-80
2022/06/10 00:37:06;;;;;;;9.98;2.40;;;13.50;99.90;;;;;;4954299;28;20505;-80
2022/06/10 00:39:34;;;;;;;7.25;2.25;;;13.40;99.90;;;;;;4953446;28;20121;-80
2022/06/10 00:42:04;;;;;;;10.10;2.55;;;13.40;99.90;;;;;;4986123;28;20222;-80
2022/06/10 00:44:42;;;;;;;10.25;2.40;;;13.40;99.90;;;;;;4954167;28;20042;-80
2022/06/10 00:47:34;;;;;;;10.15;2.17;;;13.40;99.90;;;;;;4972011;28;20070;-80
2022/06/10 00:50:26;;;;;;;10.02;2.63;;;13.40;99.90;;;;;;4968024;28;20038;-80
2022/06/10 00:53:00;;;;;;;8.57;2.25;;;13.40;99.90;;;;;;4955115;28;20046;-80
2022/06/10 00:55:30;;;;;;;10.27;2.67;;;13.30;99.90;;;;;;4964402;28;20183;-80
2022/06/10 00:58:07;;;;;;;10.57;2.47;;;13.30;99.90;;;;;;4970822;28;20061;-80
2022/06/10 01:00:36;;;;;;;12.15;2.70;;;13.30;99.90;;;;;;4952438;28;20046;-80
2022/06/10 01:03:02;;;;;;;8.77;2.20;;;13.00;99.90;;;;;;4965242;28;20130;-81
2022/06/10 01:05:29;;;;;;;9.90;2.85;;;13.30;99.90;;;;;;4970611;28;20050;-80
2022/06/10 01:07:57;;;;;;;12.07;2.53;;;13.30;99.90;;;;;;4970609;28;20030;-80
2022/06/10 01:10:24;;;;;;;9.57;2.30;;;13.20;99.90;;;;;;4969538;28;20046;-80
2022/06/10 01:13:02;;;;;;;12.70;2.70;;;13.20;99.90;;;;;;4955498;28;20404;-80
2022/06/10 01:15:49;;;;;;;7.35;2.20;;;13.20;99.90;;;;;;4970591;28;20322;-80
2022/06/10 01:18:54;;;;;;;8.57;2.30;;;13.20;99.90;;;;;;4954840;28;20045;-80
2022/06/10 01:21:54;;;;;;;9.15;2.47;;;13.20;99.90;;;;;;4956178;28;20680;-80
2022/06/10 01:24:44;;;;;;;8.98;2.50;;;13.10;99.90;;;;;;4974097;28;20123;-80
2022/06/10 01:27:48;;;;;;;8.85;2.42;;;13.10;99.90;;;;;;4958270;28;20043;-80
2022/06/10 01:30:22;;;;;;;11.30;2.67;;;13.10;99.90;;;;;;4955635;28;20492;-80
2022/06/10 01:33:07;;;;;;;9.15;2.75;;;13.10;99.90;;;;;;4971707;28;20046;-80
2022/06/10 01:36:00;;;;;;;11.80;3.10;;;13.10;99.90;;;;;;4958438;28;20050;-80
2022/06/10 01:38:47;;;;;;;10.63;2.37;;;13.10;99.90;;;;;;4942016;28;20090;-80
2022/06/10 01:41:39;;;;;;;10.32;2.72;;;13.10;99.90;;;;;;4972639;28;20901;-80
2022/06/10 01:44:16;;;;;;;8.90;2.75;;;13.10;99.90;;;;;;4971654;28;20047;-80
2022/06/10 01:47:07;;;;;;;11.20;2.53;;;13.00;99.90;;;;;;4958680;28;20042;-80
2022/06/10 01:49:43;;;;;;;12.50;2.55;;;13.00;99.90;;;;;;4970988;28;20030;-80
2022/06/10 01:52:16;;;;;;;9.82;2.80;;;13.00;99.90;;;;;;4954854;28;20063;-80
2022/06/10 01:55:12;;;;;;;11.00;2.72;;;13.00;99.90;;;;;;4954281;28;20054;-80
2022/06/10 01:58:16;;;;;;;11.35;2.92;;;12.90;99.90;;;;;;4965997;28;20042;-80
2022/06/10 02:00:46;;;;;;;11.27;2.70;;;12.90;99.90;;;;;;4976843;28;20089;-80
2022/06/10 02:03:22;;;;;;;9.65;3.00;;;12.90;99.90;;;;;;4967086;28;20053;-80
2022/06/10 02:05:59;;;;;;;9.50;2.72;;;12.80;99.90;;;;;;4957689;28;20042;-80
2022/06/10 02:08:42;;;;;;;9.77;2.65;;;12.80;99.90;;;;;;4970867;28;20108;-80
2022/06/10 02:11:15;;;;;;;11.25;2.78;;;12.80;99.90;;;;;;4973415;28;20399;-80
2022/06/10 02:13:54;;;;;;;10.02;3.00;;;12.80;99.90;;;;;;4971342;28;20038;-80
2022/06/10 02:16:25;;;;;;;13.73;3.30;;;12.80;99.90;;;;;;4957873;28;20074;-80
2022/06/10 02:19:02;;;;;;;12.70;3.13;;;12.70;99.90;;;;;;4971594;28;20129;-79
2022/06/10 02:21:42;;;;;;;10.13;2.95;;;12.70;99.90;;;;;;4957680;28;20046;-80
2022/06/10 02:24:22;;;;;;;10.18;2.88;;;12.70;99.90;;;;;;4969434;28;20059;-80
2022/06/10 02:26:48;;;;;;;9.55;3.10;;;12.60;99.90;;;;;;4959784;28;20039;-80
2022/06/10 02:29:24;;;;;;;12.07;3.20;;;12.60;99.90;;;;;;4970973;28;20551;-80
2022/06/10 02:31:57;;;;;;;8.95;2.83;;;12.60;99.90;;;;;;4973194;28;20185;-80
2022/06/10 02:34:24;;;;;;;11.73;2.97;;;12.50;99.90;;;;;;4969697;28;20528;-80
2022/06/10 02:37:09;;;;;;;10.57;3.03;;;12.50;99.90;;;;;;4970431;28;20034;-80
2022/06/10 02:39:49;;;;;;;9.75;3.03;;;12.50;99.90;;;;;;4967262;28;20038;-80
2022/06/10 02:42:36;;;;;;;9.80;2.78;;;12.50;99.90;;;;;;4944334;28;20034;-80
2022/06/10 02:45:11;;;;;;;12.55;3.35;;;12.50;99.90;;;;;;4970497;28;20081;-80
2022/06/10 02:48:05;;;;;;;12.05;3.17;;;12.50;99.90;;;;;;4954650;28;20045;-80
2022/06/10 02:50:31;;;;;;;10.88;2.75;;;12.50;99.90;;;;;;4980258;28;20497;-80
2022/06/10 02:52:58;;;;;;;11.18;3.15;;;12.50;99.90;;;;;;4944916;28;20031;-80
2022/06/10 02:55:26;;;;;;;11.90;3.28;;;12.50;99.90;;;;;;4969703;28;20112;-80
2022/06/10 03:03:42;;;;;;;9.60;3.38;;;12.50;99.90;;;;;;4969252;28;20078;-79
2022/06/10 03:06:26;;;;;;;13.60;3.17;;;12.40;99.90;;;;;;4955444;28;20042;-80
2022/06/10 03:09:16;;;;;;;11.77;3.70;;;12.40;99.90;;;;;;4970467;28;20042;-80
2022/06/10 03:11:50;;;;;;;12.30;3.65;;;12.40;99.90;;;;;;4954555;28;20057;-80
2022/06/10 03:14:38;;;;;;;15.40;3.30;;;12.40;99.90;;;;;;4952926;28;20055;-80
2022/06/10 03:17:30;;;;;;;11.45;3.42;;;12.40;99.90;;;;;;4971757;28;20088;-80
2022/06/10 03:20:17;;;;;;;11.32;3.10;;;12.40;99.90;;;;;;4957105;28;20548;-80
2022/06/10 03:23:00;;;;;;;10.18;3.05;;;12.40;99.90;;;;;;4970776;28;20065;-80
2022/06/10 03:25:33;;;;;;;9.48;3.15;;;12.40;99.90;;;;;;4954844;28;20034;-80
2022/06/10 03:28:25;;;;;;;11.23;2.90;;;12.40;99.90;;;;;;4953615;28;20054;-80
2022/06/10 03:31:03;;;;;;;13.70;3.50;;;12.30;99.90;;;;;;4954842;28;20394;-80
2022/06/10 03:33:37;;;;;;;12.55;3.28;;;12.40;99.90;;;;;;4955527;28;20122;-80
2022/06/10 03:36:17;;;;;;;12.82;3.33;;;12.30;99.90;;;;;;4986477;28;20042;-80
2022/06/10 03:38:46;;;;;;;13.55;3.15;;;12.30;99.90;;;;;;4953826;28;20046;-80
2022/06/10 03:41:23;;;;;;;10.10;2.90;;;12.30;99.90;;;;;;4955256;28;20030;-80
2022/06/10 03:43:51;;;;;;;10.93;3.20;;;11.10;99.90;;;;;;4953324;28;20042;-80
2022/06/10 03:46:19;;;;;;;11.07;2.80;;;12.40;99.90;;;;;;4953471;28;20493;-80
2022/06/10 03:48:46;;;;;;;12.93;3.47;;;12.40;99.90;;;;;;4969421;28;20031;-80
2022/06/10 03:51:15;;;;;;;11.05;3.47;;;12.40;99.90;;;;;;4938850;28;20077;-80
2022/06/10 03:53:41;;;;;;;10.40;3.13;;;12.40;99.90;;;;;;4950568;28;20098;-80
2022/06/10 03:56:07;;;;;;;12.57;3.13;;;12.40;99.90;;;;;;4936900;28;20138;-80
2022/06/10 03:58:33;;;;;;;11.27;3.00;;;12.40;99.90;;;;;;4948567;28;20077;-80
2022/06/10 04:00:59;;;;;;;10.23;3.20;;;12.50;99.90;;;;;;4940118;28;20046;-80
2022/06/10 04:03:26;;;;;;;12.38;3.33;;;12.50;99.90;;;;;;4938027;28;20038;-81
2022/06/10 04:05:51;;;;;;;13.38;3.72;;;12.60;99.90;;;;;;4954348;28;20154;-80
2022/06/10 04:08:17;;;;;;;11.35;3.40;;;12.60;99.90;;;;;;4939202;28;20189;-80
2022/06/10 04:10:43;;;;;;;10.10;2.90;;;12.60;99.90;;;;;;4956363;28;20057;-80
2022/06/10 04:13:10;;;;;;;10.68;3.08;;;12.70;99.90;;;;;;4952707;28;20034;-80
2022/06/10 04:15:36;;;;;;;10.18;3.10;;;12.80;99.90;;;;;;4945775;28;20416;-80
2022/06/10 04:18:04;;;;;;;11.23;3.22;;;12.80;99.90;;;;;;4939708;28;20053;-80
2022/06/10 04:20:34;;;;;;;12.68;3.38;;;12.90;99.90;;;;;;4948344;28;20122;-80
2022/06/10 04:23:01;;;;;;;10.60;3.15;;;13.00;99.90;;;;;;4965437;28;20050;-80
2022/06/10 04:25:27;;;;;;;11.27;3.50;;;13.00;99.90;;;;;;4967659;28;20050;-80
2022/06/10 04:27:54;;;;;;;9.80;2.83;;;13.10;99.90;;;;;;4951987;28;20104;-80
2022/06/10 04:30:26;;;;;;;11.77;2.92;;;13.20;99.90;;;;;;4970167;28;20568;-80
2022/06/10 04:32:53;;;;;;;9.30;2.70;;;13.20;99.90;;;;;;4949501;28;20069;-80
2022/06/10 04:35:19;;;;;;;11.65;3.22;;;13.30;99.90;;;;;;4951521;28;20477;-80
2022/06/10 04:37:45;;;;;;;12.02;3.20;;;13.30;99.90;;;;;;4952261;28;20475;-80
2022/06/10 04:40:15;;;;;;;11.80;2.88;;;13.40;99.90;;;;;;4966336;28;20125;-80
2022/06/10 04:42:41;;;;;;;12.90;3.10;;;13.50;99.90;;;;;;4968651;28;20125;-79
2022/06/10 04:45:07;;;;;;;10.52;3.20;;;13.50;99.90;;;;;;4951020;28;20126;-80
2022/06/10 04:47:33;;;;;;;12.50;3.08;;;13.60;99.90;;;;;;4969396;28;20492;-80
2022/06/10 04:49:59;;;;;;;10.10;2.85;;;13.60;99.90;;;;;;4970547;28;20143;-80
2022/06/10 04:52:27;;;;;;;11.38;3.35;;;13.70;99.90;;;;;;4952456;28;20042;-80
2022/06/10 04:54:54;;;;;;;11.38;3.13;;;13.80;99.90;;;;;;4958128;28;20073;-80
2022/06/10 04:57:20;;;;;;;9.98;2.95;;;13.80;99.90;;;;;;4951995;28;20175;-80
2022/06/10 04:59:46;;;;;;;9.82;2.78;;;13.90;99.90;;;;;;4958060;28;20045;-80
2022/06/10 05:02:12;;;;;;;13.80;3.08;;;14.00;99.90;;;;;;4955148;28;20448;-81
2022/06/10 05:04:38;;;;;;;13.15;3.10;;;14.10;99.90;;;;;;4956639;28;20117;-81
2022/06/10 05:07:04;;;;;;;10.73;3.13;;;14.20;99.90;;;;;;4940841;28;20085;-80
2022/06/10 05:09:29;;;;;;;12.07;3.00;;;14.30;99.90;;;;;;4954720;28;20038;-81
2022/06/10 05:11:55;;;;;;;9.70;2.55;;;14.50;99.90;;;;;;4939281;28;20050;-81
2022/06/10 05:14:22;;;;;;;13.80;3.30;;;14.60;99.90;;;;;;4971659;28;20156;-82
2022/06/10 05:16:47;;;;;;;15.57;2.92;;;14.80;99.90;;;;;;4951133;28;20053;-80
2022/06/10 05:19:13;;;;;;;9.93;2.80;;;14.90;99.90;;;;;;4955570;28;20050;-81
2022/06/10 05:21:39;;;;;;;12.52;3.55;;;15.00;99.90;;;;;;4958331;28;20100;-81
2022/06/10 05:24:05;;;;;;;11.48;3.00;;;15.00;99.90;;;;;;4942091;28;20045;-80
2022/06/10 05:26:32;;;;;;;12.18;2.90;;;15.00;99.90;;;;;;4974093;28;20047;-82
2022/06/10 05:28:59;;;;;;;13.20;3.70;;;15.00;99.90;;;;;;4973234;28;20100;-80
2022/06/10 05:31:25;;;;;;;11.70;2.78;;;14.90;99.90;;;;;;4974328;28;20508;-81
2022/06/10 05:36:35;;;;;;;14.10;2.92;;;15.00;99.90;;;;;;4960737;28;20089;-81
2022/06/10 05:39:01;;;;;;;11.10;3.15;;;15.00;99.90;;;;;;4957827;28;20082;-81
2022/06/10 05:44:11;;;;;;;14.73;3.28;;;15.00;99.90;;;;;;4934005;28;20046;-80
2022/06/10 05:46:37;;;;;;;14.15;3.10;;;15.10;99.90;;;;;;4957161;28;20120;-81
2022/06/10 05:49:03;;;;;;;13.50;3.53;;;15.10;99.90;;;;;;4973925;28;20045;-81
2022/06/10 05:51:29;;;;;;;12.57;3.15;;;15.10;99.90;;;;;;4938670;28;20050;-81
2022/06/10 05:53:54;;;;;;;10.70;2.95;;;15.20;99.90;;;;;;4952072;28;20043;-81
2022/06/10 05:56:20;;;;;;;10.52;3.38;;;15.20;99.90;;;;;;4937394;28;20047;-81
2022/06/10 05:58:46;;;;;;;11.20;2.90;;;15.20;99.90;;;;;;4954398;28;20042;-81
2022/06/10 06:01:12;;;;;;;12.05;3.20;;;14.40;99.90;;;;;;4953654;28;20068;-81
2022/06/10 06:03:38;;;;;;;12.27;3.38;;;15.20;99.90;;;;;;4951264;28;20053;-80
2022/06/10 06:06:04;;;;;;;12.48;3.17;;;15.30;99.90;;;;;;4937593;28;20580;-81
2022/06/10 06:08:30;;;;;;;13.65;3.17;;;15.40;99.90;;;;;;4954841;28;20070;-81
2022/06/10 06:10:56;;;;;;;11.93;2.78;;;15.40;99.90;;;;;;4969864;28;20117;-80
2022/06/10 06:13:21;;;;;;;11.73;2.85;;;15.40;99.90;;;;;;4972230;28;20038;-81
2022/06/10 06:15:47;;;;;;;12.43;2.97;;;15.50;99.90;;;;;;4937965;28;20038;-80
2022/06/10 06:18:13;;;;;;;15.05;3.50;;;15.50;99.90;;;;;;4956741;28;20497;-81
2022/06/10 06:20:39;;;;;;;12.27;3.40;;;15.60;99.90;;;;;;4937869;28;20039;-81
2022/06/10 06:23:05;;;;;;;12.30;3.38;;;15.60;99.90;;;;;;4970644;28;20048;-81
2022/06/10 06:25:31;;;;;;;10.32;2.90;;;15.70;99.90;;;;;;4951409;28;20592;-81
2022/06/10 06:27:58;;;;;;;15.23;4.15;;;15.70;99.90;;;;;;4950748;28;20138;-81
2022/06/10 06:30:32;;;;;;;13.10;3.17;;;15.70;99.90;;;;;;4940608;28;20420;-80
2022/06/10 06:33:01;;;;;;;12.43;3.20;;;15.80;99.90;;;;;;4972755;28;20391;-81
2022/06/10 06:35:27;;;;;;;15.90;3.60;;;15.90;99.90;;;;;;4972287;28;20128;-81
2022/06/10 06:37:53;;;;;;;13.32;3.25;;;16.00;99.90;;;;;;4956183;28;20125;-81
2022/06/10 06:40:19;;;;;;;8.80;2.90;;;16.10;99.90;;;;;;4967875;28;20469;-80
2022/06/10 06:42:46;;;;;;;14.27;3.17;;;16.10;99.90;;;;;;4956994;28;20050;-81
2022/06/10 06:45:12;;;;;;;11.43;3.17;;;16.20;99.90;;;;;;4974177;28;20378;-81
2022/06/10 06:47:40;;;;;;;13.68;3.30;;;16.30;99.90;;;;;;4939491;28;20477;-80
2022/06/10 06:50:06;;;;;;;14.82;3.60;;;16.50;99.90;;;;;;4972345;28;20493;-81
2022/06/10 06:52:32;;;;;;;14.95;3.80;;;16.60;99.90;;;;;;4956274;28;20042;-81
2022/06/10 06:54:58;;;;;;;13.60;3.95;;;16.60;99.90;;;;;;4970395;28;20045;-81
2022/06/10 06:57:25;;;;;;;13.02;4.00;;;16.60;99.90;;;;;;4955741;28;20358;-81
2022/06/10 06:59:53;;;;;;;14.10;3.83;;;16.50;99.90;;;;;;4938561;28;20050;-81
2022/06/10 07:02:20;;;;;;;15.68;4.55;;;16.40;99.90;;;;;;4952628;28;20404;-82
2022/06/10 07:04:46;;;;;;;11.77;4.10;;;16.30;99.90;;;;;;4959480;28;20061;-81
2022/06/10 07:07:11;;;;;;;15.25;3.97;;;16.20;99.90;;;;;;4955722;28;20038;-81
2022/06/10 07:09:37;;;;;;;13.00;3.90;;;16.10;99.90;;;;;;4939600;28;20073;-81
2022/06/10 07:12:04;;;;;;;12.65;4.20;;;16.10;99.90;;;;;;4954665;28;20062;-81
2022/06/10 07:14:29;;;;;;;14.02;4.35;;;16.10;99.90;;;;;;4923471;28;20042;-81
2022/06/10 07:16:55;;;;;;;13.98;3.53;;;16.20;99.90;;;;;;4939965;28;20043;-81
2022/06/10 07:19:22;;;;;;;13.48;3.60;;;16.30;99.90;;;;;;4954269;28;20164;-81
2022/06/10 07:21:48;;;;;;;13.18;3.28;;;16.40;99.90;;;;;;4954892;28;20429;-81
2022/06/10 07:24:14;;;;;;;13.02;3.80;;;16.50;99.90;;;;;;4956446;28;20121;-81
2022/06/10 07:26:40;;;;;;;13.50;3.50;;;16.50;99.90;;;;;;4956467;28;20144;-81
2022/06/10 07:29:06;;;;;;;13.98;3.80;;;16.70;99.90;;;;;;4955513;28;20116;-81
2022/06/10 07:31:34;;;;;;;14.52;4.28;;;16.70;99.90;;;;;;4950725;28;20054;-81
2022/06/10 07:34:00;;;;;;;15.23;3.90;;;16.80;99.90;;;;;;4953635;28;20050;-81
2022/06/10 07:36:26;;;;;;;12.18;4.40;;;17.00;99.90;;;;;;4938122;28;20065;-81
2022/06/10 07:38:55;;;;;;;14.25;4.85;;;17.10;99.90;;;;;;4941789;28;20045;-81
2022/06/10 07:44:06;;;;;;;10.77;3.78;;;16.90;99.90;;;;;;4966996;28;20444;-81
2022/06/10 07:46:31;;;;;;;12.60;3.92;;;16.90;99.90;;;;;;4956060;28;20050;-81
2022/06/10 07:48:57;;;;;;;12.13;4.13;;;16.90;99.90;;;;;;4940275;28;20034;-81
2022/06/10 07:51:23;;;;;;;12.38;4.50;;;16.90;99.90;;;;;;4954420;28;20409;-81
2022/06/10 07:53:49;;;;;;;12.90;4.43;;;17.00;99.90;;;;;;4939447;28;20044;-81
2022/06/10 07:56:17;;;;;;;13.18;4.65;;;17.10;99.90;;;;;;4974114;28;20054;-81
2022/06/10 07:58:45;;;;;;;13.05;4.55;;;17.00;99.90;;;;;;4946057;28;20048;-81
2022/06/10 08:01:13;;;;;;;14.15;5.10;;;17.00;99.90;;;;;;4936688;28;20576;-82
2022/06/10 08:03:39;;;;;;;10.63;4.35;;;17.00;99.90;;;;;;4988495;28;20042;-81
2022/06/10 08:06:05;;;;;;;14.73;4.88;;;17.00;99.90;;;;;;4955601;28;20460;-81
2022/06/10 08:08:31;;;;;;;13.00;4.47;;;17.10;99.90;;;;;;4948679;28;20202;-78
2022/06/10 08:10:57;;;;;;;11.82;4.22;;;17.20;99.90;;;;;;4922455;28;20038;-78
2022/06/10 08:13:24;;;;;;;12.40;4.47;;;17.30;99.90;;;;;;4983072;28;20042;-80
2022/06/10 08:15:50;;;;;;;10.73;3.83;;;17.40;99.90;;;;;;4971913;28;20061;-80
2022/06/10 08:18:18;;;;;;;10.27;4.03;;;17.40;99.90;;;;;;4987318;28;20441;-81
2022/06/10 08:23:30;;;;;;;12.18;4.15;;;17.50;99.90;;;;;;4957645;28;20053;-80
2022/06/10 08:26:00;;;;;;;11.30;4.00;;;17.40;99.90;;;;;;4935562;28;20043;-80
2022/06/10 08:28:27;;;;;;;11.95;4.32;;;17.20;99.90;;;;;;4966007;28;20534;-80
2022/06/10 08:30:53;;;;;;;12.20;4.40;;;17.10;99.90;;;;;;4954684;28;20097;-80
2022/06/10 08:33:19;;;;;;;15.88;4.80;;;17.00;99.90;;;;;;4968466;28;20043;-80
2022/06/10 08:35:48;;;;;;;11.18;4.22;;;17.00;99.90;;;;;;4955699;28;20065;-80
2022/06/10 08:38:15;;;;;;;13.38;4.45;;;17.00;99.90;;;;;;4944145;28;20038;-80
2022/06/10 08:41:15;;;;;;;11.90;4.63;;;17.00;99.90;;;;;;4961125;28;20122;-80
2022/06/10 08:44:12;;;;;;;14.75;4.80;;;17.10;99.90;;;;;;4968887;28;20042;-80
2022/06/10 08:46:59;;;;;;;15.25;4.97;;;17.10;99.90;;;;;;4947780;28;20062;-80
2022/06/10 08:49:49;;;;;;;12.27;4.30;;;17.10;99.90;;;;;;4975725;28;20050;-80
2022/06/10 08:52:36;;;;;;;11.32;4.22;;;17.10;99.90;;;;;;4975355;28;20326;-80
2022/06/10 08:55:08;;;;;;;12.52;4.65;;;17.10;99.90;;;;;;4960101;28;20110;-80
2022/06/10 08:57:44;;;;;;;13.27;4.70;;;17.10;99.90;;;;;;4973097;28;20040;-81
2022/06/10 09:00:17;;;;;;;12.07;4.10;;;17.20;99.90;;;;;;4985607;28;20038;-80
2022/06/10 09:03:05;;;;;;;14.63;5.15;;;17.30;99.90;;;;;;4971330;28;20046;-80
2022/06/10 09:05:46;;;;;;;14.95;4.40;;;17.30;99.90;;;;;;4973472;28;20200;-81
2022/06/10 09:08:23;;;;;;;12.23;4.22;;;17.40;99.90;;;;;;4975775;28;20061;-80
2022/06/10 09:10:58;;;;;;;12.15;4.03;;;17.30;99.90;;;;;;4975813;28;20038;-80
2022/06/10 09:13:30;;;;;;;13.13;4.20;;;17.20;99.90;;;;;;4971870;28;20052;-81
2022/06/10 09:16:14;;;;;;;14.07;4.70;;;17.20;99.90;;;;;;4974999;28;20520;-80
2022/06/10 09:18:47;;;;;;;13.35;4.40;;;17.30;99.90;;;;;;4951248;28;20044;-80
2022/06/10 09:21:48;;;;;;;13.75;4.78;;;17.40;99.90;;;;;;4954392;28;20089;-80
2022/06/10 09:24:21;;;;;;;14.05;5.10;;;17.60;99.90;;;;;;4973442;28;20042;-80
2022/06/10 09:26:54;;;;;;;11.07;4.97;;;17.90;99.90;;;;;;4958662;28;20085;-80
2022/06/10 09:29:20;;;;;;;13.90;5.00;;;18.30;99.90;;;;;;4959835;28;20113;-80
2022/06/10 09:32:01;;;;;;;10.93;4.70;;;18.60;99.90;;;;;;4944576;28;20043;-80
2022/06/10 09:34:51;;;;;;;12.48;5.20;;;18.90;99.90;;;;;;4956092;28;20042;-80
2022/06/10 09:37:33;;;;;;;13.68;5.43;;;19.00;99.90;;;;;;4971701;28;20570;-80
2022/06/10 09:40:36;;;;;;;12.48;4.60;;;19.00;99.90;;;;;;4959551;28;20067;-80
2022/06/10 09:43:16;;;;;;;12.38;4.45;;;18.80;99.90;;;;;;4988173;28;20799;-80
2022/06/10 09:45:59;;;;;;;11.05;4.57;;;18.60;99.90;;;;;;4955007;28;20125;-80
2022/06/10 09:48:48;;;;;;;10.98;4.60;;;18.40;99.90;;;;;;4972394;28;20552;-80
2022/06/10 09:51:19;;;;;;;11.30;4.43;;;18.20;99.90;;;;;;4958554;28;20233;-80
2022/06/10 09:54:22;;;;;;;12.18;4.50;;;18.10;99.90;;;;;;4955985;28;20035;-80
2022/06/10 09:56:59;;;;;;;10.85;4.03;;;18.00;99.90;;;;;;4955302;28;20711;-80
2022/06/10 09:59:59;;;;;;;13.13;4.30;;;18.00;99.90;;;;;;4978199;28;20046;-80
2022/06/10 10:03:01;;;;;;;13.65;4.80;;;18.00;99.90;;;;;;4972361;28;20116;-80
2022/06/10 10:05:59;;;;;;;12.63;4.70;;;18.00;99.90;;;;;;4970451;28;20274;-80
2022/06/10 10:08:38;;;;;;;11.82;4.40;;;18.20;99.90;;;;;;4973605;28;20056;-80
2022/06/10 10:11:08;;;;;;;11.93;4.30;;;18.30;99.90;;;;;;4997647;28;20499;-80
2022/06/10 10:13:55;;;;;;;17.83;4.95;;;18.50;99.90;;;;;;4982727;28;20035;-81
2022/06/10 10:16:26;;;;;;;13.65;4.43;;;18.60;99.90;;;;;;4971402;28;20050;-80
2022/06/10 10:18:52;;;;;;;12.13;4.30;;;18.70;99.90;;;;;;5003144;28;20077;-81
2022/06/10 10:21:33;;;;;;;12.60;4.30;;;18.70;99.90;;;;;;4956064;28;20100;-80
2022/06/10 10:23:59;;;;;;;12.60;4.60;;;18.70;99.90;;;;;;4970753;28;20034;-80
2022/06/10 10:26:32;;;;;;;11.35;4.28;;;18.80;99.90;;;;;;4955145;28;20073;-80
2022/06/10 10:29:03;;;;;;;15.50;4.93;;;18.90;99.90;;;;;;4950639;28;22084;-78
2022/06/10 10:31:35;;;;;;;15.25;5.78;;;18.90;99.90;;;;;;4952851;28;20038;-78
2022/06/10 10:34:03;;;;;;;14.27;5.03;;;18.90;99.90;;;;;;4964771;28;20065;-79
2022/06/10 10:36:32;;;;;;;14.13;4.70;;;19.00;99.90;;;;;;4966990;28;20605;-80
2022/06/10 10:39:11;;;;;;;12.98;4.80;;;19.20;99.90;;;;;;4966929;28;20050;-80
2022/06/10 10:41:42;;;;;;;15.73;4.75;;;19.40;99.90;;;;;;4952524;28;20486;-80
2022/06/10 10:44:39;;;;;;;11.13;4.03;;;19.50;99.90;;;;;;4952395;28;20114;-80
2022/06/10 10:47:11;;;;;;;9.43;4.05;;;19.60;99.90;;;;;;4959578;28;20568;-80
2022/06/10 10:49:52;;;;;;;13.10;4.90;;;19.60;99.90;;;;;;4950756;28;20079;-80
2022/06/10 10:52:41;;;;;;;14.05;4.88;;;19.70;99.90;;;;;;4967331;28;20138;-80
2022/06/10 10:55:31;;;;;;;11.68;4.57;;;19.70;99.90;;;;;;4948957;28;20129;-80
2022/06/10 10:57:56;;;;;;;14.40;4.97;;;19.70;99.90;;;;;;4953211;28;20137;-80
2022/06/10 11:00:39;;;;;;;13.00;4.40;;;19.50;99.90;;;;;;4950046;28;20046;-79
2022/06/10 11:03:05;;;;;;;13.45;4.93;;;19.40;99.90;;;;;;4982343;28;20046;-79
2022/06/10 11:05:48;;;;;;;11.52;4.60;;;19.30;99.90;;;;;;4962969;28;20053;-80
2022/06/10 11:08:26;;;;;;;11.00;4.18;;;19.20;99.90;;;;;;4968494;28;20035;-79
2022/06/10 11:10:54;;;;;;;11.77;4.07;;;19.20;99.90;;;;;;4963651;28;20043;-79
2022/06/10 11:13:31;;;;;;;11.85;4.25;;;19.30;99.90;;;;;;4952005;28;20576;-80
2022/06/10 11:16:29;;;;;;;10.80;3.88;;;19.30;99.90;;;;;;4966006;28;20206;-81
2022/06/10 11:19:03;;;;;;;14.32;4.47;;;19.50;99.90;;;;;;4964298;28;20257;-80
2022/06/10 11:21:29;;;;;;;11.93;4.68;;;19.60;99.90;;;;;;4950178;28;20089;-80
2022/06/10 11:23:58;;;;;;;14.05;4.30;;;19.50;99.90;;;;;;4965191;28;20050;-80
2022/06/10 11:26:26;;;;;;;12.95;4.15;;;19.60;99.90;;;;;;4933853;28;20125;-80
2022/06/10 11:29:04;;;;;;;14.48;4.00;;;19.60;99.90;;;;;;4944936;28;20059;-80
2022/06/10 11:31:40;;;;;;;11.38;4.20;;;19.50;99.90;;;;;;4946813;28;20371;-80
2022/06/10 11:34:17;;;;;;;11.55;4.05;;;19.50;99.90;;;;;;4945339;28;20035;-80
2022/06/10 11:36:51;;;;;;;10.70;3.63;;;19.40;99.90;;;;;;4956096;28;20039;-80
2022/06/10 11:39:33;;;;;;;13.55;4.18;;;19.20;99.90;;;;;;4951833;28;20050;-80
2022/06/10 11:42:08;;;;;;;12.87;3.80;;;19.10;99.90;;;;;;4947102;28;20506;-80
2022/06/10 11:44:56;;;;;;;11.82;3.70;;;19.00;99.90;;;;;;4928158;29;20047;-80
2022/06/10 11:47:40;;;;;;;9.60;3.75;;;18.90;99.90;;;;;;4932406;29;20395;-80
2022/06/10 11:50:16;;;;;;;10.15;3.45;;;18.90;99.90;;;;;;4928243;29;20043;-80
2022/06/10 11:53:01;;;;;;;11.13;3.20;;;18.90;99.90;;;;;;4928506;28;20047;-80
2022/06/10 11:55:30;;;;;;;10.10;3.33;;;19.00;99.90;;;;;;4944849;28;20161;-80
2022/06/10 12:01:05;;;;;;;9.63;3.30;;;19.50;99.90;;;;;;4961529;28;20125;-80
2022/06/10 12:03:55;;;;;;;11.60;3.25;;;19.70;99.90;;;;;;4944944;28;20340;-80
2022/06/10 12:06:27;;;;;;;11.13;3.22;;;19.70;99.90;;;;;;4928683;28;20043;-80
2022/06/10 12:09:02;;;;;;;10.25;3.15;;;19.70;99.90;;;;;;4931043;29;20043;-80
2022/06/10 12:11:50;;;;;;;12.50;4.00;;;19.80;99.90;;;;;;4923410;29;20035;-80
2022/06/10 12:14:29;;;;;;;11.77;3.42;;;20.00;99.90;;;;;;4962032;28;20498;-80
2022/06/10 12:17:25;;;;;;;12.02;3.50;;;20.20;99.90;;;;;;4945627;28;20055;-80
2022/06/10 12:19:59;;;;;;;11.05;3.53;;;20.60;99.90;;;;;;4943695;28;20419;-80
2022/06/10 12:22:26;;;;;;;12.90;4.10;;;20.80;99.90;;;;;;4945566;28;20047;-80
2022/06/10 12:24:53;;;;;;;9.82;3.42;;;21.30;99.90;;;;;;4945299;28;20087;-80
2022/06/10 12:27:44;;;;;;;12.23;4.32;;;21.60;99.90;;;;;;4915060;28;20035;-80
2022/06/10 12:30:15;;;;;;;10.65;3.67;;;21.70;99.90;;;;;;4961373;28;20038;-80
2022/06/10 12:32:54;;;;;;;12.55;3.58;;;21.50;99.90;;;;;;4966493;28;20058;-80
2022/06/10 12:35:31;;;;;;;12.40;3.97;;;21.30;99.90;;;;;;4968396;28;20401;-80
2022/06/10 12:38:01;;;;;;;11.32;3.97;;;21.00;99.90;;;;;;4984438;28;20046;-80
2022/06/10 12:40:31;;;;;;;12.55;4.10;;;20.70;99.90;;;;;;4966372;28;20072;-79
2022/06/10 12:43:10;;;;;;;10.23;3.65;;;20.60;99.90;;;;;;4951904;28;20505;-79
2022/06/10 12:45:46;;;;;;;11.93;3.50;;;20.60;99.90;;;;;;4966047;28;20129;-79
2022/06/10 12:48:21;;;;;;;14.32;3.70;;;20.60;99.90;;;;;;4954224;28;20114;-80
2022/06/10 12:50:55;;;;;;;10.25;3.10;;;20.80;99.90;;;;;;4950394;28;20109;-80
2022/06/10 12:53:45;;;;;;;10.18;3.35;;;21.00;99.90;;;;;;4952084;28;20096;-80
2022/06/10 12:56:27;;;;;;;12.77;3.60;;;21.00;99.90;;;;;;4964598;28;20038;-80
2022/06/10 12:59:08;;;;;;;12.00;3.22;;;21.00;99.90;;;;;;4967002;28;20050;-80
2022/06/10 13:01:34;;;;;;;12.35;3.42;;;21.00;99.90;;;;;;4965351;28;20058;-80
2022/06/10 13:03:59;;;;;;;9.50;3.28;;;21.10;99.90;;;;;;4965970;28;20039;-80
2022/06/10 13:06:27;;;;;;;18.70;3.45;;;21.10;99.90;;;;;;4950600;28;20057;-80
2022/06/10 13:09:05;;;;;;;10.23;3.05;;;21.20;99.90;;;;;;4964493;28;20119;-80
2022/06/10 13:11:34;;;;;;;11.82;3.63;;;21.30;99.90;;;;;;4971998;28;20397;-79
2022/06/10 13:14:19;;;;;;;11.13;3.60;;;21.20;99.90;;;;;;4953662;28;20046;-80
2022/06/10 13:16:48;;;;;;;10.10;3.15;;;21.20;99.90;;;;;;4979029;28;20451;-79
2022/06/10 13:19:51;;;;;;;11.43;3.47;;;21.10;99.90;;;;;;4968174;28;20492;-79
2022/06/10 13:22:19;;;;;;;13.00;3.33;;;21.10;99.90;;;;;;4956123;28;20044;-80
2022/06/10 13:24:54;;;;;;;10.90;3.03;;;21.00;99.90;;;;;;4954343;28;20096;-79
2022/06/10 13:27:24;;;;;;;11.93;3.40;;;20.90;99.90;;;;;;4970746;28;20038;-79
2022/06/10 13:30:03;;;;;;;12.10;3.20;;;20.70;99.90;;;;;;4970412;28;20255;-80